createdAt,value
2022-11-05T00:02:13.142Z,100807.34
2022-11-05T00:04:58.387Z,100807.53
2022-11-05T00:07:49.384Z,100800.59
2022-11-05T00:10:21.388Z,100808.53
2022-11-05T00:13:07.302Z,100816.94
2022-11-05T00:16:04.710Z,100813.56
2022-11-05T00:18:32.558Z,100813.84
2022-11-05T00:21:00.336Z,100827.91
2022-11-05T00:23:55.950Z,100823.03
2022-11-05T00:26:23.659Z,100818.44
2022-11-05T00:28:51.681Z,100812.03
2022-11-05T00:31:19.527Z,100813.78
2022-11-05T00:33:47.339Z,100806.91
2022-11-05T00:36:15.081Z,100810.56
2022-11-05T00:38:44.355Z,100812.44
2022-11-05T00:41:12.150Z,100804.41
2022-11-05T00:43:57.743Z,100776.16
2022-11-05T00:46:25.488Z,100779.16
2022-11-05T00:49:10.814Z,100774.03
2022-11-05T00:51:38.636Z,100781.41
2022-11-05T00:54:07.919Z,100776.09
2022-11-05T00:56:35.774Z,100779.66
2022-11-05T00:59:03.691Z,100773.66
2022-11-05T01:01:32.026Z,100776.81
2022-11-05T01:04:00.044Z,100756.72
2022-11-05T01:06:27.953Z,100749.59
2022-11-05T01:08:57.129Z,100729.06
2022-11-05T01:11:36.971Z,100687.63
2022-11-05T01:14:07.623Z,100674.34
2022-11-05T01:16:35.841Z,100671.25
2022-11-05T01:19:05.127Z,100659.88
2022-11-05T01:21:33.656Z,100667.13
2022-11-05T01:24:01.640Z,100668.88
2022-11-05T01:26:31.173Z,100652.97
2022-11-05T01:29:00.840Z,100652.78
2022-11-05T01:31:29.626Z,100624.59
2022-11-05T01:33:57.577Z,100608.31
2022-11-05T01:36:25.357Z,100605.50
2022-11-05T01:38:53.135Z,100582.66
2022-11-05T01:41:21.003Z,100555.53
2022-11-05T01:43:54.492Z,100530.13
2022-11-05T01:46:27.816Z,100644.72
2022-11-05T01:49:02.881Z,100624.56
2022-11-05T01:51:31.969Z,100620.63
2022-11-05T01:54:02.779Z,100617.19
2022-11-05T01:56:35.712Z,100621.66
2022-11-05T01:59:09.108Z,100607.19
2022-11-05T02:01:37.212Z,100593.88
2022-11-05T02:04:09.771Z,100609.69
2022-11-05T02:06:45.920Z,100602.25
2022-11-05T02:09:19.063Z,100606.94
2022-11-05T02:11:47.944Z,100599.59
2022-11-05T02:14:18.266Z,100603.03
2022-11-05T02:16:52.080Z,100592.25
2022-11-05T02:19:47.356Z,100585.22
2022-11-05T02:22:57.980Z,100582.59
2022-11-05T02:25:50.460Z,100584.25
2022-11-05T02:28:38.552Z,100586.81
2022-11-05T02:31:17.966Z,100566.69
2022-11-05T02:33:56.907Z,100575.78
2022-11-05T02:36:37.168Z,100575.22
2022-11-05T02:39:17.355Z,100567.47
2022-11-05T02:41:59.294Z,100559.81
2022-11-05T02:44:39.580Z,100566.72
2022-11-05T02:47:18.397Z,100562.22
2022-11-05T02:49:55.084Z,100556.91
2022-11-05T02:52:29.805Z,100536.97
2022-11-05T02:55:06.942Z,100552.00
2022-11-05T02:57:37.319Z,100539.16
2022-11-05T03:00:08.333Z,100533.31
2022-11-05T03:02:37.866Z,100530.84
2022-11-05T03:05:06.751Z,100529.19
2022-11-05T03:07:46.883Z,100530.19
2022-11-05T03:10:40.469Z,100522.34
2022-11-05T03:13:18.419Z,100507.31
2022-11-05T03:15:54.742Z,100504.59
2022-11-05T03:18:30.903Z,100497.41
2022-11-05T03:21:04.422Z,100488.63
2022-11-05T03:23:39.844Z,100487.72
2022-11-05T03:26:17.450Z,100490.31
2022-11-05T03:28:51.660Z,100489.53
2022-11-05T03:31:21.046Z,100481.75
2022-11-05T03:33:52.948Z,100485.13
2022-11-05T03:36:26.248Z,100482.59
2022-11-05T03:38:56.170Z,100489.41
2022-11-05T03:41:26.419Z,100486.34
2022-11-05T03:44:02.862Z,100481.59
2022-11-05T03:46:35.247Z,100484.31
2022-11-05T03:49:07.333Z,100486.25
2022-11-05T03:51:42.858Z,100539.69
2022-11-05T03:54:11.898Z,100556.41
2022-11-05T03:56:45.605Z,100551.19
2022-11-05T03:59:14.307Z,100562.50
2022-11-05T04:01:43.329Z,100557.91
2022-11-05T04:04:12.734Z,100555.41
2022-11-05T04:07:09.464Z,100554.97
2022-11-05T04:09:54.714Z,100561.47
2022-11-05T04:12:40.239Z,100570.88
2022-11-05T04:15:09.503Z,100569.44
2022-11-05T04:17:36.420Z,100574.69
2022-11-05T04:20:24.152Z,100569.69
2022-11-05T04:23:17.247Z,100571.31
2022-11-05T04:25:45.551Z,100557.59
2022-11-05T04:28:14.510Z,100559.44
2022-11-05T04:30:44.245Z,100558.81
2022-11-05T04:33:14.328Z,100559.84
2022-11-05T04:35:46.748Z,100558.22
2022-11-05T04:38:16.117Z,100556.47
2022-11-05T04:40:45.069Z,100545.31
2022-11-05T04:43:15.420Z,100545.16
2022-11-05T04:45:43.476Z,100538.78
2022-11-05T04:48:11.879Z,100528.31
2022-11-05T04:50:40.730Z,100538.06
2022-11-05T04:53:10.061Z,100536.16
2022-11-05T04:55:38.244Z,100541.56
2022-11-05T04:58:06.254Z,100523.25
2022-11-05T05:00:34.224Z,100514.66
2022-11-05T05:03:02.250Z,100526.19
2022-11-05T05:05:30.565Z,100532.09
2022-11-05T05:08:02.250Z,100525.56
2022-11-05T05:10:31.564Z,100535.41
2022-11-05T05:12:59.631Z,100533.00
2022-11-05T05:15:28.556Z,100532.22
2022-11-05T05:17:57.150Z,100541.06
2022-11-05T05:20:42.618Z,100554.81
2022-11-05T05:23:11.992Z,100547.88
2022-11-05T05:25:41.447Z,100554.66
2022-11-05T05:28:09.345Z,100564.59
2022-11-05T05:30:37.246Z,100559.28
2022-11-05T05:33:05.495Z,100534.19
2022-11-05T05:35:33.571Z,100532.22
2022-11-05T05:38:01.410Z,100532.19
2022-11-05T05:40:29.331Z,100526.06
2022-11-05T05:42:58.585Z,100539.31
2022-11-05T05:45:26.470Z,100536.75
2022-11-05T05:47:56.700Z,100543.81
2022-11-05T05:50:24.719Z,100546.50
2022-11-05T05:52:52.528Z,100542.44
2022-11-05T05:55:20.496Z,100540.63
2022-11-05T05:57:48.493Z,100531.78
2022-11-05T06:00:18.046Z,100542.00
2022-11-05T06:02:47.035Z,100523.72
2022-11-05T06:05:15.247Z,100532.34
2022-11-05T06:07:43.166Z,100528.59
2022-11-05T06:10:11.463Z,100540.72
2022-11-05T06:12:39.450Z,100516.97
2022-11-05T06:15:07.912Z,100518.53
2022-11-05T06:17:37.050Z,100519.28
2022-11-05T06:20:05.606Z,100512.22
2022-11-05T06:22:33.439Z,100521.75
2022-11-05T06:25:04.589Z,100521.72
2022-11-05T06:27:32.457Z,100513.97
2022-11-05T06:30:00.669Z,100517.59
2022-11-05T06:32:28.648Z,100412.75
2022-11-05T06:34:57.927Z,100405.00
2022-11-05T06:37:27.035Z,100419.06
2022-11-05T06:39:57.470Z,100408.53
2022-11-05T06:42:25.610Z,100413.97
2022-11-05T06:44:53.524Z,100423.50
2022-11-05T06:47:21.376Z,100424.56
2022-11-05T06:49:49.277Z,100423.53
2022-11-05T06:52:18.480Z,100420.09
2022-11-05T06:54:46.347Z,100418.44
2022-11-05T06:57:14.285Z,100408.81
2022-11-05T06:59:42.939Z,100390.25
2022-11-05T07:02:12.888Z,100427.16
2022-11-05T07:04:40.915Z,100426.22
2022-11-05T07:07:08.816Z,100392.84
2022-11-05T07:09:40.537Z,100415.63
2022-11-05T07:12:09.015Z,100377.16
2022-11-05T07:14:36.952Z,100355.19
2022-11-05T07:17:04.791Z,100356.13
2022-11-05T07:19:32.608Z,100346.59
2022-11-05T07:22:00.425Z,100341.28
2022-11-05T07:24:28.293Z,100364.53
2022-11-05T07:26:57.563Z,100347.75
2022-11-05T07:29:25.614Z,100352.78
2022-11-05T07:31:55.304Z,100340.50
2022-11-05T07:34:23.124Z,100342.06
2022-11-05T07:36:50.903Z,100342.66
2022-11-05T07:39:18.835Z,100338.81
2022-11-05T07:41:46.771Z,100329.03
2022-11-05T07:44:17.621Z,100318.31
2022-11-05T07:46:45.514Z,100311.25
2022-11-05T07:49:13.491Z,100315.69
2022-11-05T07:51:41.634Z,100303.97
2022-11-05T07:54:09.526Z,100296.00
2022-11-05T07:56:37.403Z,100308.16
2022-11-05T07:59:05.201Z,100303.66
2022-11-05T08:01:34.654Z,100307.91
2022-11-05T08:04:05.564Z,100305.22
2022-11-05T08:06:33.349Z,100305.84
2022-11-05T08:09:01.216Z,100300.59
2022-11-05T08:11:29.161Z,100295.22
2022-11-05T08:13:56.932Z,100301.84
2022-11-05T08:16:24.851Z,100267.53
2022-11-05T08:18:53.977Z,100213.78
2022-11-05T08:21:21.812Z,100203.78
2022-11-05T08:23:49.590Z,100204.31
2022-11-05T08:26:17.489Z,100202.38
2022-11-05T08:28:45.302Z,100195.75
2022-11-05T08:31:14.425Z,100181.78
2022-11-05T08:33:42.357Z,100142.38
2022-11-05T08:36:11.645Z,100122.69
2022-11-05T08:38:39.567Z,100086.94
2022-11-05T08:41:07.539Z,100059.34
2022-11-05T08:43:35.495Z,100051.66
2022-11-05T08:46:03.695Z,100048.72
2022-11-05T08:48:31.551Z,100048.66
2022-11-05T08:51:01.762Z,100031.31
2022-11-05T08:53:30.885Z,100001.75
2022-11-05T08:56:00.593Z,100006.34
2022-11-05T08:58:28.567Z,99978.28
2022-11-05T09:01:01.849Z,99947.59
2022-11-05T09:03:32.509Z,99890.81
2022-11-05T09:06:00.519Z,99858.31
2022-11-05T09:08:29.822Z,99762.50
2022-11-05T09:10:57.705Z,99731.25
2022-11-05T09:13:26.133Z,99708.88
2022-11-05T09:15:54.715Z,99661.75
2022-11-05T09:18:22.662Z,99619.84
2022-11-05T09:20:50.585Z,99603.88
2022-11-05T09:23:18.674Z,99624.22
2022-11-05T09:25:48.000Z,99610.41
2022-11-05T09:28:18.472Z,99604.50
2022-11-05T09:30:48.764Z,99590.78
2022-11-05T09:33:18.670Z,99575.94
2022-11-05T09:35:47.157Z,99576.59
2022-11-05T09:38:14.975Z,99580.22
2022-11-05T09:40:49.199Z,99578.63
2022-11-05T09:43:21.141Z,99545.13
2022-11-05T09:45:51.184Z,99583.97
2022-11-05T09:48:24.080Z,99697.28
2022-11-05T09:50:56.106Z,99815.94
2022-11-05T09:53:25.085Z,99944.13
2022-11-05T09:55:58.029Z,100112.50
2022-11-05T09:58:37.188Z,100658.00
2022-11-05T10:01:07.595Z,100682.88
2022-11-05T10:03:43.352Z,100733.06
2022-11-05T10:06:18.579Z,100774.19
2022-11-05T10:08:50.569Z,100786.31
2022-11-05T10:11:22.908Z,100812.31
2022-11-05T10:13:57.906Z,100832.50
2022-11-05T10:16:28.617Z,100841.91
2022-11-05T10:19:03.239Z,100851.50
2022-11-05T10:21:59.700Z,100856.66
2022-11-05T10:24:22.196Z,100886.75
2022-11-05T10:26:53.506Z,100911.38
2022-11-05T10:29:27.467Z,100971.50
2022-11-05T10:31:57.164Z,101160.94
2022-11-05T10:34:28.267Z,101274.22
2022-11-05T10:36:56.504Z,100720.91
2022-11-05T10:39:27.658Z,100314.69
2022-11-05T10:42:22.498Z,100640.16
2022-11-05T10:45:05.068Z,100368.78
2022-11-05T10:47:55.363Z,100282.25
2022-11-05T10:50:27.521Z,100305.00
2022-11-05T10:53:03.993Z,100302.84
2022-11-05T10:55:38.756Z,100333.34
2022-11-05T10:58:19.709Z,100348.91
2022-11-05T11:01:03.968Z,100355.38
2022-11-05T11:03:36.826Z,100379.19
2022-11-05T11:06:07.761Z,100395.75
2022-11-05T11:08:37.694Z,100425.59
2022-11-05T11:11:11.342Z,100930.75
2022-11-05T11:13:52.781Z,100936.56
2022-11-05T11:16:25.277Z,100927.94
2022-11-05T11:18:58.477Z,100879.22
2022-11-05T11:21:26.876Z,100836.69
2022-11-05T11:23:56.592Z,100859.16
2022-11-05T11:26:26.928Z,100851.53
2022-11-05T11:29:09.084Z,100851.56
2022-11-05T11:31:50.494Z,100850.31
2022-11-05T11:34:23.448Z,100855.09
2022-11-05T11:36:55.403Z,100843.84
2022-11-05T11:39:34.401Z,100835.66
2022-11-05T11:42:08.999Z,100847.47
2022-11-05T11:44:43.042Z,100857.19
2022-11-05T11:47:15.594Z,100844.44
2022-11-05T11:49:53.394Z,100854.84
2022-11-05T11:52:30.813Z,100872.56
2022-11-05T11:55:22.124Z,100878.06
2022-11-05T11:58:02.411Z,100864.41
2022-11-05T12:00:31.634Z,100866.25
2022-11-05T12:03:25.612Z,100869.66
2022-11-05T12:06:01.020Z,100866.53
2022-11-05T12:08:45.543Z,100861.22
2022-11-05T12:11:22.477Z,100855.22
2022-11-05T12:13:59.349Z,100850.69
2022-11-05T12:16:41.991Z,100847.81
2022-11-05T12:19:22.447Z,100870.81
2022-11-05T12:22:08.558Z,100867.63
2022-11-05T12:24:58.860Z,100863.16
2022-11-05T12:27:41.133Z,100874.53
2022-11-05T12:30:15.074Z,100877.13
2022-11-05T12:33:06.694Z,100878.31
2022-11-05T12:36:04.734Z,100888.78
2022-11-05T12:39:00.532Z,100905.41
2022-11-05T12:41:33.220Z,100926.63
2022-11-05T12:44:21.863Z,100966.84
2022-11-05T12:46:59.420Z,101006.13
2022-11-05T12:49:47.509Z,101031.97
2022-11-05T12:52:37.692Z,101054.69
2022-11-05T12:55:11.924Z,101061.50
2022-11-05T12:57:46.522Z,101052.63
2022-11-05T13:00:22.061Z,101053.78
2022-11-05T13:02:57.859Z,101029.44
2022-11-05T13:05:35.327Z,101007.25
2022-11-05T13:08:09.367Z,101027.72
2022-11-05T13:10:42.104Z,101046.19
2022-11-05T13:13:17.401Z,101020.22
2022-11-05T13:15:54.401Z,101005.41
2022-11-05T13:18:33.319Z,100999.00
2022-11-05T13:21:08.037Z,100980.63
2022-11-05T13:23:48.046Z,100959.28
2022-11-05T13:26:21.331Z,100967.59
2022-11-05T13:29:02.788Z,100922.25
2022-11-05T13:31:37.182Z,100961.06
2022-11-05T13:34:14.385Z,100948.19
2022-11-05T13:37:09.330Z,100956.97
2022-11-05T13:39:45.017Z,100975.56
2022-11-05T13:42:52.389Z,100956.81
2022-11-05T13:45:48.681Z,100964.66
2022-11-05T13:49:05.226Z,100962.72
2022-11-05T13:51:52.553Z,100990.41
2022-11-05T13:54:57.437Z,100966.91
2022-11-05T13:57:54.708Z,100977.47
2022-11-05T14:00:25.321Z,100977.06
2022-11-05T14:02:56.391Z,100999.94
2022-11-05T14:05:29.537Z,101003.81
2022-11-05T14:08:00.120Z,101000.66
2022-11-05T14:10:37.867Z,100985.97
2022-11-05T14:13:21.914Z,100988.63
2022-11-05T14:16:01.996Z,100984.72
2022-11-05T14:18:44.058Z,100999.78
2022-11-05T14:21:45.522Z,101007.97
2022-11-05T14:24:42.623Z,101024.09
2022-11-05T14:27:46.390Z,101039.28
2022-11-05T14:30:44.888Z,101022.28
2022-11-05T14:33:33.134Z,101022.81
2022-11-05T14:36:38.748Z,101024.59
2022-11-05T14:39:31.519Z,101025.47
2022-11-05T14:42:03.908Z,101030.28
2022-11-05T14:44:34.198Z,101034.84
2022-11-05T14:47:06.621Z,101022.31
2022-11-05T14:49:39.574Z,101029.47
2022-11-05T14:52:10.107Z,101028.28
2022-11-05T14:54:43.903Z,101031.41
2022-11-05T14:57:15.354Z,101030.78
2022-11-05T15:00:01.613Z,101040.63
2022-11-05T15:02:49.453Z,101029.56
2022-11-05T15:05:41.196Z,101010.78
2022-11-05T15:08:31.889Z,100996.72
2022-11-05T15:11:09.591Z,100987.53
2022-11-05T15:13:41.709Z,101003.94
2022-11-05T15:16:09.780Z,101000.84
2022-11-05T15:18:46.629Z,101005.41
2022-11-05T15:21:17.696Z,101009.84
2022-11-05T15:23:48.355Z,101017.09
2022-11-05T15:26:34.102Z,100983.00
2022-11-05T15:29:02.721Z,100977.09
2022-11-05T15:31:42.583Z,100933.78
2022-11-05T15:34:20.016Z,100972.41
2022-11-05T15:36:50.169Z,100947.94
2022-11-05T15:39:43.009Z,100933.81
2022-11-05T15:42:16.029Z,100934.03
2022-11-05T15:44:46.552Z,100934.22
2022-11-05T15:47:20.631Z,100914.63
2022-11-05T15:49:52.371Z,100935.78
2022-11-05T15:52:24.506Z,100941.56
2022-11-05T15:55:15.630Z,100946.94
2022-11-05T15:57:50.414Z,100957.34
2022-11-05T16:00:25.736Z,100960.53
2022-11-05T16:02:56.764Z,100988.47
2022-11-05T16:05:27.902Z,100989.41
2022-11-05T16:08:02.433Z,100981.91
2022-11-05T16:10:32.470Z,101013.38
2022-11-05T16:13:22.597Z,100999.69
2022-11-05T16:15:57.844Z,101039.63
2022-11-05T16:18:32.039Z,101079.28
2022-11-05T16:21:09.548Z,101113.91
2022-11-05T16:23:45.926Z,100878.53
2022-11-05T16:29:30.430Z,100926.94
2022-11-05T16:32:01.201Z,100939.31
2022-11-05T16:34:33.485Z,100961.31
2022-11-05T16:37:02.679Z,101039.00
2022-11-05T16:39:30.585Z,101065.50
2022-11-05T16:41:58.426Z,101084.00
2022-11-05T16:44:26.539Z,101099.03
2022-11-05T16:46:55.353Z,101099.88
2022-11-05T16:49:23.210Z,101116.69
2022-11-05T16:51:54.208Z,101120.41
2022-11-05T16:54:28.507Z,101130.00
2022-11-05T16:56:56.488Z,101141.59
2022-11-05T16:59:24.455Z,101148.50
2022-11-05T17:01:56.112Z,101141.31
2022-11-05T17:04:24.170Z,101145.78
2022-11-05T17:06:52.362Z,101148.41
2022-11-05T17:09:20.634Z,101132.16
2022-11-05T17:11:49.969Z,101147.94
2022-11-05T17:14:17.936Z,101171.50
2022-11-05T17:16:45.798Z,101162.69
2022-11-05T17:19:16.772Z,101174.16
2022-11-05T17:21:44.755Z,101176.75
2022-11-05T17:24:12.596Z,101185.50
2022-11-05T17:26:40.460Z,101185.59
2022-11-05T17:29:10.059Z,101183.22
2022-11-05T17:31:39.905Z,101163.06
2022-11-05T17:34:07.820Z,101191.63
2022-11-05T17:36:35.707Z,101211.72
2022-11-05T17:39:06.299Z,101205.47
2022-11-05T17:41:34.239Z,101202.09
2022-11-05T17:44:02.087Z,101198.66
2022-11-05T17:46:33.503Z,101198.81
2022-11-05T17:49:01.578Z,101210.22
2022-11-05T17:51:34.002Z,101225.00
2022-11-05T17:54:02.212Z,101209.97
2022-11-05T17:56:34.970Z,101209.91
2022-11-05T17:59:04.748Z,101213.38
2022-11-05T18:01:37.318Z,101216.72
2022-11-05T18:04:08.899Z,101217.56
2022-11-05T18:06:37.550Z,101216.59
2022-11-05T18:09:06.008Z,101223.59
2022-11-05T18:11:34.656Z,101223.56
2022-11-05T18:14:02.565Z,101199.91
2022-11-05T18:16:35.327Z,101204.78
2022-11-05T18:19:03.620Z,101190.53
2022-11-05T18:21:31.477Z,101165.91
2022-11-05T18:23:59.331Z,101170.44
2022-11-05T18:26:27.231Z,101169.41
2022-11-05T18:28:57.925Z,101145.56
2022-11-05T18:31:26.086Z,101150.81
2022-11-05T18:33:57.795Z,101141.97
2022-11-05T18:36:28.123Z,101127.25
2022-11-05T18:38:57.740Z,101143.06
2022-11-05T18:41:26.041Z,101154.63
2022-11-05T18:43:54.064Z,101153.53
2022-11-05T18:46:51.188Z,101156.16
2022-11-05T18:49:12.953Z,101148.28
2022-11-05T18:51:40.984Z,101143.13
2022-11-05T18:54:09.213Z,101152.53
2022-11-05T18:56:37.310Z,101149.00
2022-11-05T18:59:34.561Z,101126.28
2022-11-05T19:01:56.101Z,101121.97
2022-11-05T19:04:26.283Z,101142.69
2022-11-05T19:06:54.383Z,101141.78
2022-11-05T19:09:22.421Z,101135.03
2022-11-05T19:11:50.966Z,101131.59
2022-11-05T19:14:19.422Z,101131.47
2022-11-05T19:16:47.355Z,101133.91
2022-11-05T19:19:15.246Z,101140.97
2022-11-05T19:21:44.576Z,101132.25
2022-11-05T19:24:16.672Z,101122.81
2022-11-05T19:26:46.623Z,101136.53
2022-11-05T19:29:14.435Z,101146.25
2022-11-05T19:31:42.389Z,101138.31
2022-11-05T19:34:10.643Z,101144.59
2022-11-05T19:36:38.462Z,101135.66
2022-11-05T19:39:09.559Z,101138.22
2022-11-05T19:41:38.055Z,101132.94
2022-11-05T19:44:06.050Z,101127.41
2022-11-05T19:46:43.180Z,101115.16
2022-11-05T19:49:11.726Z,101107.13
2022-11-05T19:51:40.585Z,101084.34
2022-11-05T19:54:10.540Z,101097.31
2022-11-05T19:56:38.639Z,101079.94
2022-11-05T19:59:07.552Z,101084.53
2022-11-05T20:01:36.300Z,101088.97
2022-11-05T20:04:05.749Z,101113.31
2022-11-05T20:06:38.031Z,101101.19
2022-11-05T20:09:21.749Z,101113.31
2022-11-05T20:11:54.262Z,101106.09
2022-11-05T20:14:23.667Z,101102.00
2022-11-05T20:16:52.425Z,101111.16
2022-11-05T20:19:22.634Z,101088.38
2022-11-05T20:21:51.186Z,101105.06
2022-11-05T20:24:25.105Z,101093.56
2022-11-05T20:26:57.078Z,101095.22
2022-11-05T20:29:33.700Z,101091.66
2022-11-05T20:32:04.638Z,101096.84
2022-11-05T20:34:34.290Z,101084.63
2022-11-05T20:37:02.930Z,101077.31
2022-11-05T20:39:31.144Z,101068.66
2022-11-05T20:42:01.528Z,101071.22
2022-11-05T20:44:30.205Z,101057.38
2022-11-05T20:46:58.277Z,101073.72
2022-11-05T20:49:28.643Z,101052.91
2022-11-05T20:51:56.678Z,101064.13
2022-11-05T20:54:25.084Z,101078.94
2022-11-05T20:56:52.981Z,101071.16
2022-11-05T20:59:22.396Z,101067.84
2022-11-05T21:01:52.235Z,101070.28
2022-11-05T21:04:20.407Z,101084.44
2022-11-05T21:06:48.473Z,101084.31
2022-11-05T21:09:16.484Z,101080.09
2022-11-05T21:12:02.072Z,101092.13
2022-11-05T21:14:31.318Z,101073.84
2022-11-05T21:16:59.294Z,101077.09
2022-11-05T21:19:29.517Z,101070.16
2022-11-05T21:21:57.665Z,101068.56
2022-11-05T21:24:25.785Z,101063.25
2022-11-05T21:26:53.971Z,101066.81
2022-11-05T21:29:22.125Z,101080.66
2022-11-05T21:31:59.896Z,101064.72
2022-11-05T21:34:33.800Z,101085.91
2022-11-05T21:37:01.701Z,101069.16
2022-11-05T21:39:30.156Z,101072.91
2022-11-05T21:41:58.049Z,101081.53
2022-11-05T21:44:27.341Z,101085.94
2022-11-05T21:46:59.123Z,101047.72
2022-11-05T21:49:39.678Z,101080.88
2022-11-05T21:52:25.226Z,101074.31
2022-11-05T21:55:13.222Z,101058.47
2022-11-05T21:57:59.300Z,101061.13
2022-11-05T22:00:27.372Z,101052.25
2022-11-05T22:03:02.219Z,101037.47
2022-11-05T22:05:30.963Z,101030.69
2022-11-05T22:07:58.950Z,101040.03
2022-11-05T22:10:35.475Z,101054.19
2022-11-05T22:13:03.866Z,101033.22
2022-11-05T22:15:32.025Z,101040.91
2022-11-05T22:18:04.165Z,101028.81
2022-11-05T22:20:32.099Z,101042.59
2022-11-05T22:23:00.465Z,101018.91
2022-11-05T22:25:30.459Z,101033.00
2022-11-05T22:27:59.284Z,101026.88
2022-11-05T22:30:27.918Z,101030.59
2022-11-05T22:32:55.858Z,101038.63
2022-11-05T22:35:25.175Z,101040.13
2022-11-05T22:37:53.030Z,101042.78
2022-11-05T22:40:28.467Z,101046.28
2022-11-05T22:42:56.559Z,101045.31
2022-11-05T22:45:24.593Z,101007.16
2022-11-05T22:48:02.525Z,101007.81
2022-11-05T22:50:35.866Z,101011.28
2022-11-05T22:53:09.558Z,100993.38
2022-11-05T22:55:40.431Z,101027.50
2022-11-05T22:58:08.380Z,101031.88
2022-11-05T23:00:49.496Z,101022.22
2022-11-05T23:03:24.611Z,101016.91
2022-11-05T23:09:50.973Z,101003.69
2022-11-05T23:12:27.104Z,100991.50
2022-11-05T23:14:56.810Z,100993.91
2022-11-05T23:17:43.310Z,100981.78
2022-11-05T23:20:32.505Z,100966.31
2022-11-05T23:23:19.658Z,100951.44
2022-11-05T23:25:48.126Z,100959.19
2022-11-05T23:28:25.640Z,100950.28
2022-11-05T23:31:17.933Z,100933.78
2022-11-05T23:33:45.968Z,100935.25
2022-11-05T23:36:31.857Z,100945.84
2022-11-05T23:39:01.197Z,100940.53
2022-11-05T23:41:46.576Z,100948.44
2022-11-05T23:44:32.028Z,100952.84
2022-11-05T23:47:17.517Z,100944.81
2022-11-05T23:49:45.867Z,100942.25
2022-11-05T23:52:13.809Z,100952.00
2022-11-05T23:54:43.634Z,100961.00
2022-11-05T23:57:12.031Z,100967.31
2022-11-05T23:59:40.006Z,100977.47
